Time;durP1;ratioP1;P1;durP2;ratioP2;P2;SDS_P1;SDS_P2;PMS_P1;PMS_P2;Temp;Humidity;BMP_temperature;BMP_pressure;BME280_temperature;BME280_humidity;BME280_pressure;Samples;Min_cycle;Max_cycle;Signal;HPM_P1;HPM_P2
2022/08/02 00:03:57;;;;;;;6.90;3.67;;;;;;;18.69;54.16;100152.97;10335501;28;20057;-82
2022/08/02 00:09:00;;;;;;;7.25;4.65;;;;;;;18.58;54.54;100164.53;10352430;28;20049;-82
2022/08/02 00:14:02;;;;;;;8.68;4.72;;;;;;;18.42;54.96;100161.56;10340247;28;20061;-82
2022/08/02 00:19:04;;;;;;;6.68;3.83;;;;;;;18.38;55.04;100170.75;10334380;28;20054;-82
2022/08/02 00:24:06;;;;;;;7.05;4.10;;;;;;;18.32;55.15;100155.41;10351165;28;20672;-82
2022/08/02 00:29:31;;;;;;;5.53;3.92;;;;;;;18.27;55.37;100162.91;10333601;28;20136;-82
2022/08/02 00:34:33;;;;;;;7.03;3.88;;;;;;;18.24;55.35;100169.28;10332581;28;20054;-82
2022/08/02 00:39:38;;;;;;;5.40;3.80;;;;;;;18.11;55.53;100167.81;10332753;28;20455;-82
2022/08/02 00:44:41;;;;;;;6.32;3.60;;;;;;;18.03;55.91;100171.16;10333924;28;20100;-82
2022/08/02 00:49:42;;;;;;;6.22;4.03;;;;;;;17.91;56.01;100164.28;10333686;28;20577;-82
2022/08/02 00:54:44;;;;;;;7.10;3.88;;;;;;;17.89;56.03;100168.88;10332637;28;20104;-82
2022/08/02 00:59:46;;;;;;;5.03;3.47;;;;;;;17.83;56.33;100154.34;10347661;28;20053;-82
2022/08/02 01:04:48;;;;;;;4.97;3.42;;;;;;;17.81;56.59;100163.41;10332004;28;20057;-82
2022/08/02 01:09:49;;;;;;;5.22;3.30;;;;;;;17.67;56.74;100167.19;10332991;28;20112;-82
2022/08/02 01:14:59;;;;;;;5.50;4.00;;;;;;;17.52;57.43;100157.94;10334294;28;20046;-83
2022/08/02 01:20:34;;;;;;;4.63;3.35;;;;;;;17.31;58.02;100165.00;10347883;28;20676;-82
2022/08/02 01:25:55;;;;;;;7.38;3.70;;;;;;;17.42;57.26;100162.34;10348175;28;20093;-82
2022/08/02 01:31:19;;;;;;;6.15;3.80;;;;;;;17.36;57.85;100154.91;10348478;28;20112;-82
2022/08/02 01:36:23;;;;;;;8.32;4.80;;;;;;;17.24;57.98;100166.47;10346616;28;20054;-81
2022/08/02 01:41:27;;;;;;;6.63;3.95;;;;;;;17.21;58.05;100166.72;10330543;28;20107;-82
2022/08/02 01:46:30;;;;;;;5.05;3.80;;;;;;;17.02;58.43;100166.56;10333381;28;20050;-82
2022/08/02 01:56:58;;;;;;;4.95;3.30;;;;;;;17.11;57.84;100168.47;10333836;28;20053;-84
2022/08/02 02:02:00;;;;;;;4.90;3.50;;;;;;;17.06;58.06;100172.47;10332880;28;20089;-84
2022/08/02 02:07:02;;;;;;;5.90;4.07;;;;;;;16.97;58.06;100166.97;10338207;28;20046;-82
2022/08/02 02:12:06;;;;;;;6.75;4.03;;;;;;;16.83;58.45;100166.44;10350194;28;20101;-82
2022/08/02 02:17:15;;;;;;;7.28;3.97;;;;;;;16.84;58.42;100173.38;10338092;28;20137;-82
2022/08/02 02:22:36;;;;;;;4.90;3.63;;;;;;;16.81;58.52;100178.91;10357766;28;20117;-82
2022/08/02 02:28:05;;;;;;;6.03;5.22;;;;;;;16.81;58.73;100174.44;10347790;28;20070;-81
2022/08/02 02:33:09;;;;;;;5.93;4.30;;;;;;;16.74;58.97;100175.09;10362258;28;20075;-82
2022/08/02 02:38:16;;;;;;;5.53;4.25;;;;;;;16.74;58.95;100168.00;10359537;28;20124;-82
2022/08/02 02:43:20;;;;;;;5.65;3.80;;;;;;;16.62;58.84;100165.53;10359337;28;20068;-82
2022/08/02 02:48:23;;;;;;;5.47;3.63;;;;;;;16.61;59.07;100155.94;10341157;28;20496;-83
2022/08/02 02:53:26;;;;;;;6.25;4.10;;;;;;;16.48;58.87;100155.22;10344751;28;20583;-83
2022/08/02 02:58:30;;;;;;;6.43;4.25;;;;;;;16.37;59.42;100163.13;10360786;28;20090;-83
2022/08/02 03:03:33;;;;;;;6.05;4.03;;;;;;;16.39;59.24;100161.19;10352144;28;20850;-83
2022/08/02 03:08:34;;;;;;;5.88;4.13;;;;;;;16.43;59.27;100165.28;10339137;28;20092;-83
2022/08/02 03:13:38;;;;;;;4.88;3.53;;;;;;;16.34;59.47;100166.88;10339566;28;20416;-84
2022/08/02 03:18:42;;;;;;;4.88;3.78;;;;;;;16.32;59.22;100173.22;10337329;28;20046;-84
2022/08/02 03:23:45;;;;;;;5.53;4.18;;;;;;;16.30;59.20;100159.31;10335464;28;20116;-84
2022/08/02 03:28:47;;;;;;;4.95;3.53;;;;;;;16.21;59.54;100163.53;10352251;28;20113;-83
2022/08/02 03:33:49;;;;;;;4.45;3.80;;;;;;;16.11;59.71;100157.28;10336809;28;20120;-83
2022/08/02 03:38:52;;;;;;;5.40;4.18;;;;;;;16.05;59.68;100150.72;10334882;28;20058;-83
2022/08/02 03:43:55;;;;;;;5.30;3.60;;;;;;;16.04;59.72;100148.19;10336650;28;20054;-83
2022/08/02 03:48:57;;;;;;;10.10;4.70;;;;;;;16.02;59.57;100158.00;10338388;28;20058;-83
2022/08/02 03:54:00;;;;;;;6.82;3.90;;;;;;;15.94;59.50;100153.34;10336446;28;20421;-83
2022/08/02 03:59:10;;;;;;;6.47;3.88;;;;;;;15.85;59.77;100148.81;10334709;28;20109;-83
2022/08/02 04:04:12;;;;;;;7.95;4.15;;;;;;;15.68;59.57;100153.69;10333055;28;20100;-83
2022/08/02 04:09:13;;;;;;;4.97;3.88;;;;;;;15.83;59.96;100152.50;10336446;28;20467;-83
2022/08/02 04:14:15;;;;;;;5.88;4.10;;;;;;;16.06;59.49;100159.47;10351031;28;20054;-83
2022/08/02 04:19:44;;;;;;;5.40;4.05;;;;;;;16.04;59.41;100164.03;10336293;28;20050;-83
2022/08/02 04:24:49;;;;;;;5.32;4.18;;;;;;;16.15;59.23;100159.56;10339218;28;20085;-82
2022/08/02 04:29:52;;;;;;;4.97;3.30;;;;;;;16.28;58.91;100164.72;10349944;28;20128;-83
2022/08/02 04:34:54;;;;;;;4.65;3.72;;;;;;;16.56;58.43;100176.56;10335844;28;20049;-83
2022/08/02 04:40:16;;;;;;;5.60;3.58;;;;;;;17.19;57.55;100178.38;10348679;28;20132;-83
2022/08/02 04:45:19;;;;;;;7.03;3.45;;;;;;;18.67;53.50;100171.63;10332156;28;20983;-83
2022/08/02 04:50:20;;;;;;;5.53;4.00;;;;;;;18.66;52.80;100164.66;10333210;28;20113;-83
2022/08/02 04:55:27;;;;;;;10.05;5.25;;;;;;;18.14;53.80;100183.44;10334321;28;20101;-83
2022/08/02 05:00:29;;;;;;;4.78;3.95;;;;;;;17.69;54.70;100181.13;10334015;28;20086;-83
2022/08/02 05:05:32;;;;;;;6.25;4.15;;;;;;;18.34;53.48;100185.22;10350919;28;20409;-83
2022/08/02 05:10:33;;;;;;;4.28;3.50;;;;;;;19.66;50.67;100179.31;10332965;28;20057;-83
2022/08/02 05:15:35;;;;;;;5.63;3.80;;;;;;;21.25;47.63;100175.25;10335583;28;20058;-83
2022/08/02 05:20:37;;;;;;;6.03;3.33;;;;;;;22.67;44.05;100177.25;10334121;28;20061;-83
2022/08/02 05:25:39;;;;;;;4.05;2.95;;;;;;;21.51;45.53;100177.00;10353149;28;20111;-83
2022/08/02 05:30:40;;;;;;;3.65;3.13;;;;;;;20.84;47.21;100179.38;10331705;28;20102;-83
2022/08/02 05:35:44;;;;;;;4.68;3.60;;;;;;;20.18;48.78;100178.72;10332998;28;20047;-84
2022/08/02 05:40:45;;;;;;;5.30;3.67;;;;;;;19.78;49.70;100188.78;10328071;28;20112;-83
2022/08/02 05:45:55;;;;;;;;;;;;;;;18.82;51.93;100195.91;10333444;28;20049;-83
2022/08/02 05:51:09;;;;;;;4.40;3.70;;;;;;;18.72;52.43;100201.22;10346756;28;19930;-83
2022/08/02 05:56:27;;;;;;;6.53;3.90;;;;;;;18.90;52.24;100196.06;10352524;28;20090;-83
2022/08/02 06:01:37;;;;;;;5.68;4.10;;;;;;;18.91;52.46;100205.72;10335571;28;20579;-83
2022/08/02 06:06:42;;;;;;;5.60;3.83;;;;;;;18.67;53.32;100217.50;10355044;28;20076;-83
2022/08/02 06:11:48;;;;;;;6.03;4.68;;;;;;;18.57;53.53;100215.81;10358315;28;20087;-83
2022/08/02 06:17:04;;;;;;;6.82;5.20;;;;;;;18.79;53.22;100212.09;10344485;28;20667;-83
2022/08/02 06:22:15;;;;;;;6.55;5.85;;;;;;;18.69;54.12;100205.97;10341986;28;20499;-83
2022/08/02 06:27:38;;;;;;;6.10;5.50;;;;;;;18.61;54.51;100215.41;10352256;28;20054;-82
2022/08/02 06:32:42;;;;;;;7.05;5.72;;;;;;;18.81;54.15;100205.66;10355020;28;20053;-79
2022/08/02 06:37:50;;;;;;;4.97;4.18;;;;;;;18.74;54.48;100209.00;10353667;28;20081;-80
2022/08/02 06:43:35;;;;;;;5.88;4.43;;;;;;;19.10;53.95;100192.47;10352500;28;20176;-79
2022/08/02 06:48:40;;;;;;;10.45;5.47;;;;;;;19.20;53.67;100199.47;10337398;28;20081;-80
2022/08/02 06:53:41;;;;;;;7.93;5.60;;;;;;;19.33;53.73;100201.84;10351601;28;20053;-80
2022/08/02 06:58:43;;;;;;;7.65;4.60;;;;;;;19.57;53.16;100185.47;10336225;28;20050;-80
2022/08/02 07:03:46;;;;;;;8.55;4.97;;;;;;;19.55;53.21;100182.97;10335851;28;20523;-80
2022/08/02 07:08:48;;;;;;;6.93;5.07;;;;;;;19.66;53.02;100181.97;10330382;28;20795;-80
2022/08/02 07:14:09;;;;;;;6.55;4.43;;;;;;;19.82;52.78;100184.88;10345545;28;20064;-81
2022/08/02 07:19:12;;;;;;;8.82;5.07;;;;;;;20.08;52.18;100180.59;10337333;28;20160;-80
2022/08/02 07:24:13;;;;;;;8.82;4.78;;;;;;;20.20;51.89;100177.59;10330557;28;20499;-80
2022/08/02 07:29:15;;;;;;;8.02;5.07;;;;;;;20.50;51.20;100163.16;10332083;28;20058;-80
2022/08/02 07:34:17;;;;;;;6.97;4.70;;;;;;;20.67;51.06;100174.84;10333541;28;20045;-80
2022/08/02 07:39:19;;;;;;;5.53;4.05;;;;;;;21.25;50.30;100164.63;10336459;28;20058;-80
2022/08/02 07:44:22;;;;;;;6.32;3.85;;;;;;;23.28;46.59;100152.84;10334044;28;20049;-81
2022/08/02 07:49:25;;;;;;;8.45;3.95;;;;;;;24.77;43.37;100149.25;10334307;28;20050;-80
2022/08/02 07:54:27;;;;;;;6.07;3.60;;;;;;;25.84;41.15;100132.91;10331333;28;20054;-81
2022/08/02 07:59:29;;;;;;;6.93;3.58;;;;;;;26.47;39.30;100126.94;10333478;28;20078;-81
2022/08/02 08:04:31;;;;;;;7.57;3.55;;;;;;;26.90;38.17;100128.66;10334661;28;20120;-81
2022/08/02 08:09:33;;;;;;;6.15;3.30;;;;;;;27.58;36.71;100138.78;10348308;28;20081;-81
2022/08/02 08:14:35;;;;;;;5.38;2.85;;;;;;;27.21;36.37;100139.94;10330777;28;20038;-81
2022/08/02 08:19:37;;;;;;;4.97;2.70;;;;;;;28.11;34.00;100131.88;10331634;28;20104;-81
2022/08/02 08:24:52;;;;;;;6.22;2.35;;;;;;;28.61;32.59;100109.94;10332231;28;20064;-80
2022/08/02 08:29:54;;;;;;;4.43;2.13;;;;;;;28.60;32.45;100108.31;10346792;28;20133;-81
2022/08/02 08:34:56;;;;;;;4.18;2.20;;;;;;;29.05;32.25;100110.25;10329772;28;20058;-80
2022/08/02 08:39:58;;;;;;;3.45;2.10;;;;;;;29.18;31.15;100108.59;10332344;28;20057;-81
2022/08/02 08:44:59;;;;;;;3.97;1.70;;;;;;;29.04;30.74;100100.53;10332276;28;20051;-81
2022/08/02 08:50:05;;;;;;;3.38;1.80;;;;;;;29.27;30.06;100101.97;10332696;28;20056;-81
2022/08/02 08:55:09;;;;;;;4.95;1.73;;;;;;;29.30;28.99;100105.06;10334994;28;20558;-81
2022/08/02 09:00:12;;;;;;;2.67;1.40;;;;;;;29.35;27.87;100107.97;10349620;28;20081;-81
2022/08/02 09:05:15;;;;;;;3.95;1.60;;;;;;;29.07;28.05;100093.91;10333532;28;20125;-80
2022/08/02 09:10:43;;;;;;;4.10;1.58;;;;;;;29.33;27.41;100093.03;10350161;28;20116;-80
2022/08/02 09:15:54;;;;;;;2.70;1.63;;;;;;;29.11;27.35;100091.63;10347082;28;20057;-81
2022/08/02 09:21:02;;;;;;;2.75;1.52;;;;;;;29.43;27.73;100083.53;10350352;28;20053;-81
2022/08/02 09:26:11;;;;;;;3.60;1.75;;;;;;;29.98;26.44;100086.72;10347365;28;20151;-81
2022/08/02 09:31:15;;;;;;;5.85;1.70;;;;;;;29.76;26.73;100083.47;10333461;28;20054;-80
2022/08/02 09:36:17;;;;;;;3.25;1.38;;;;;;;29.46;26.05;100077.72;10334502;28;20049;-81
2022/08/02 09:41:25;;;;;;;4.20;1.40;;;;;;;30.16;24.47;100074.22;10332250;28;20143;-80
2022/08/02 09:46:29;;;;;;;4.35;1.30;;;;;;;30.00;25.46;100074.69;10346578;28;20096;-80
2022/08/02 09:51:58;;;;;;;4.32;1.27;;;;;;;30.56;23.68;100070.28;10331420;28;20104;-81
2022/08/02 09:57:00;;;;;;;3.92;1.38;;;;;;;30.26;24.67;100069.19;10328035;28;20054;-80
2022/08/02 10:02:09;;;;;;;3.90;1.40;;;;;;;30.48;22.96;100062.44;10329129;28;20148;-81
2022/08/02 10:07:18;;;;;;;3.05;1.20;;;;;;;30.49;23.99;100063.28;10346177;28;20050;-80
2022/08/02 10:12:23;;;;;;;1.73;1.20;;;;;;;30.87;23.70;100063.19;10332341;28;20066;-81
2022/08/02 10:17:25;;;;;;;2.97;1.20;;;;;;;30.68;22.98;100057.72;10332013;28;20096;-80
2022/08/02 10:22:28;;;;;;;2.83;1.40;;;;;;;30.45;23.30;100052.09;10332797;28;20045;-81
2022/08/02 10:27:30;;;;;;;3.00;1.30;;;;;;;30.75;22.81;100044.19;10333308;28;20046;-81
2022/08/02 10:32:56;;;;;;;2.53;1.35;;;;;;;30.93;23.28;100040.72;10330434;28;20141;-80
2022/08/02 10:38:03;;;;;;;1.70;1.17;;;;;;;31.08;23.00;100030.44;10332137;28;20891;-80
2022/08/02 10:43:05;;;;;;;3.65;1.30;;;;;;;31.12;23.34;100015.44;10351863;28;20117;-80
2022/08/02 10:48:13;;;;;;;2.60;1.25;;;;;;;30.94;23.26;100028.88;10351380;28;20056;-81
2022/08/02 10:53:29;;;;;;;2.00;1.38;;;;;;;30.32;23.21;100025.13;10352356;28;20042;-81
2022/08/02 10:58:33;;;;;;;3.92;1.35;;;;;;;29.71;24.55;100026.66;10353672;28;20054;-81
2022/08/02 11:03:38;;;;;;;5.63;1.33;;;;;;;29.68;24.61;100011.72;10350276;28;20051;-81
2022/08/02 11:08:41;;;;;;;3.50;1.40;;;;;;;29.38;25.05;100018.63;10352329;28;20064;-81
2022/08/02 11:14:03;;;;;;;3.08;1.38;;;;;;;29.37;24.83;100025.06;10336939;28;20556;-81
2022/08/02 11:19:05;;;;;;;2.40;1.30;;;;;;;29.77;24.88;100002.38;10345654;28;20062;-81
2022/08/02 11:24:28;;;;;;;2.08;1.42;;;;;;;29.55;24.13;99994.78;10333659;28;20121;-81
2022/08/02 11:29:39;;;;;;;3.90;1.40;;;;;;;30.02;24.33;99990.88;10336502;28;20396;-78
2022/08/02 11:34:42;;;;;;;3.20;1.23;;;;;;;30.30;24.21;99983.22;10348797;28;20555;-78
2022/08/02 11:39:50;;;;;;;3.53;1.30;;;;;;;30.46;23.78;99978.16;10348949;28;20096;-78
2022/08/02 11:44:52;;;;;;;;;;;;;;;30.18;24.05;99971.47;10349334;28;20059;-80
2022/08/02 11:50:08;;;;;;;2.45;1.30;;;;;;;30.65;23.81;99985.28;10334842;28;19933;-80
2022/08/02 11:55:12;;;;;;;2.47;1.30;;;;;;;30.84;23.54;99978.06;10347515;28;20164;-80
2022/08/02 12:00:16;;;;;;;2.22;1.30;;;;;;;30.86;23.23;99965.16;10331074;28;20072;-80
2022/08/02 12:05:20;;;;;;;4.60;1.20;;;;;;;30.67;22.77;99958.88;10332678;28;20053;-80
2022/08/02 12:10:49;;;;;;;3.45;1.60;;;;;;;30.70;22.79;99962.19;10345561;28;20140;-81
2022/08/02 12:15:51;;;;;;;3.63;1.30;;;;;;;30.54;23.19;99953.59;10333582;28;20058;-80
2022/08/02 12:20:53;;;;;;;1.67;1.25;;;;;;;30.53;23.02;99959.22;10333690;28;20152;-81
2022/08/02 12:26:08;;;;;;;4.53;1.40;;;;;;;30.42;23.19;99958.00;10331100;28;20112;-80
2022/08/02 12:31:17;;;;;;;1.55;1.20;;;;;;;30.26;23.51;99947.75;10345190;28;20058;-80
2022/08/02 12:36:23;;;;;;;2.25;1.45;;;;;;;30.30;23.87;99950.84;10332821;28;20054;-81
2022/08/02 12:41:27;;;;;;;3.10;1.23;;;;;;;30.56;23.48;99950.66;10343932;28;20054;-81
2022/08/02 12:46:32;;;;;;;3.45;1.30;;;;;;;30.68;23.25;99952.44;10344388;28;20100;-81
2022/08/02 12:51:42;;;;;;;3.83;1.40;;;;;;;30.84;23.13;99944.81;10334558;28;20070;-81
2022/08/02 12:57:14;;;;;;;3.10;1.45;;;;;;;30.52;22.95;99944.06;10333445;28;20077;-80
2022/08/02 13:02:16;;;;;;;4.07;1.45;;;;;;;30.73;22.92;99926.63;10350053;28;20054;-80
2022/08/02 13:07:19;;;;;;;1.95;1.20;;;;;;;30.87;22.43;99920.06;10348511;28;20449;-80
2022/08/02 13:12:21;;;;;;;2.80;1.30;;;;;;;31.06;22.66;99919.06;10335462;28;20065;-81
2022/08/02 13:17:23;;;;;;;4.88;1.50;;;;;;;30.96;22.20;99910.63;10332967;28;20050;-81
2022/08/02 13:22:24;;;;;;;3.97;1.40;;;;;;;31.03;22.52;99914.94;10332745;28;20053;-81
2022/08/02 13:27:30;;;;;;;2.03;1.27;;;;;;;31.21;21.89;99900.63;10347369;28;20459;-81
2022/08/02 13:32:32;;;;;;;4.55;1.50;;;;;;;31.08;22.10;99900.75;10349949;28;20096;-81
2022/08/02 13:37:35;;;;;;;6.47;1.30;;;;;;;31.22;22.53;99894.97;10330710;28;20985;-81
2022/08/02 13:42:40;;;;;;;2.88;1.40;;;;;;;31.28;22.24;99887.84;10346705;28;20555;-81
2022/08/02 13:47:43;;;;;;;6.57;1.40;;;;;;;31.59;22.13;99887.69;10333188;28;20054;-81
2022/08/02 13:53:05;;;;;;;2.53;1.30;;;;;;;31.60;22.11;99889.31;10332233;28;20239;-81
2022/08/02 13:58:07;;;;;;;3.28;1.30;;;;;;;31.50;21.80;99882.81;10345743;28;20174;-81
2022/08/02 14:03:09;;;;;;;4.68;1.45;;;;;;;31.66;21.44;99868.66;10331283;28;20136;-80
2022/08/02 14:08:13;;;;;;;4.72;1.70;;;;;;;31.74;21.59;99869.16;10346198;28;20049;-80
2022/08/02 14:13:18;;;;;;;4.43;1.40;;;;;;;32.06;21.20;99857.06;10332043;28;20046;-81
2022/08/02 14:18:20;;;;;;;4.35;1.40;;;;;;;32.32;21.04;99855.78;10337787;28;20046;-80
2022/08/02 14:23:22;;;;;;;1.67;1.20;;;;;;;32.37;20.93;99855.09;10334046;28;20066;-80
2022/08/02 14:28:43;;;;;;;6.50;1.30;;;;;;;32.24;21.37;99848.84;10334318;28;20504;-80
2022/08/02 14:33:50;;;;;;;2.85;1.42;;;;;;;32.44;20.70;99847.66;10338032;28;20050;-80
2022/08/02 14:38:52;;;;;;;3.55;1.30;;;;;;;32.54;20.66;99848.75;10337031;28;20412;-80
2022/08/02 14:44:03;;;;;;;2.60;1.40;;;;;;;32.53;21.01;99852.53;10353798;28;20045;-81
2022/08/02 14:49:06;;;;;;;2.33;1.40;;;;;;;32.79;20.66;99843.06;10333365;28;20086;-80
2022/08/02 14:54:09;;;;;;;2.47;1.40;;;;;;;32.91;20.32;99841.16;10333976;28;20062;-80
2022/08/02 14:59:12;;;;;;;3.25;1.48;;;;;;;32.63;20.81;99841.09;10350559;28;20143;-81
2022/08/02 15:04:14;;;;;;;3.30;1.33;;;;;;;32.66;21.05;99841.44;10332635;28;20065;-80
2022/08/02 15:09:16;;;;;;;4.25;1.40;;;;;;;32.70;20.78;99841.78;10337499;28;20796;-81
2022/08/02 15:14:33;;;;;;;5.10;1.50;;;;;;;32.83;20.22;99836.97;10343419;28;20097;-81
2022/08/02 15:19:35;;;;;;;3.28;1.27;;;;;;;32.61;20.67;99825.09;10351987;28;20553;-81
2022/08/02 15:24:57;;;;;;;6.25;1.60;;;;;;;32.38;21.63;99838.59;10350516;28;20053;-80
2022/08/02 15:29:59;;;;;;;5.07;1.30;;;;;;;32.10;21.97;99831.19;10352738;28;20065;-81
2022/08/02 15:35:01;;;;;;;5.82;1.42;;;;;;;32.05;21.53;99832.91;10353609;28;20045;-81
2022/08/02 15:40:04;;;;;;;3.35;1.30;;;;;;;32.19;21.18;99832.47;10350704;28;20073;-80
2022/08/02 15:45:08;;;;;;;2.95;1.30;;;;;;;32.13;21.25;99830.69;10343173;28;20052;-81
2022/08/02 15:50:17;;;;;;;4.35;1.38;;;;;;;32.09;21.19;99832.22;10348687;28;20093;-81
2022/08/02 15:55:19;;;;;;;5.25;1.33;;;;;;;32.01;21.22;99826.31;10351272;28;20468;-80
2022/08/02 16:00:22;;;;;;;1.67;1.33;;;;;;;32.03;21.35;99835.84;10333514;28;20054;-80
2022/08/02 16:05:24;;;;;;;2.28;1.30;;;;;;;31.94;21.73;99831.00;10335430;28;20104;-81
2022/08/02 16:10:27;;;;;;;3.15;1.30;;;;;;;31.81;22.06;99826.63;10331575;28;20054;-80
2022/08/02 16:15:28;;;;;;;3.03;1.40;;;;;;;31.54;21.88;99828.06;10335808;28;20049;-80
2022/08/02 16:20:30;;;;;;;4.80;1.52;;;;;;;31.46;22.02;99821.06;10336570;28;20046;-80
2022/08/02 16:25:32;;;;;;;3.30;1.40;;;;;;;31.54;22.18;99819.94;10334163;28;20553;-80
2022/08/02 16:30:37;;;;;;;3.13;1.23;;;;;;;31.40;21.99;99818.44;10330183;28;20053;-80
2022/08/02 16:35:38;;;;;;;1.77;1.30;;;;;;;31.49;22.60;99819.81;10333454;28;20049;-80
2022/08/02 16:40:45;;;;;;;2.83;1.40;;;;;;;31.55;22.10;99804.56;10333215;28;20136;-80
2022/08/02 16:45:47;;;;;;;2.85;1.48;;;;;;;31.46;22.13;99806.72;10337450;28;20088;-80
2022/08/02 16:50:49;;;;;;;4.45;1.27;;;;;;;31.47;22.65;99803.78;10333592;28;20054;-79
2022/08/02 16:55:51;;;;;;;5.93;1.42;;;;;;;31.55;22.38;99799.97;10325971;28;20085;-78
2022/08/02 17:00:53;;;;;;;3.42;1.40;;;;;;;31.54;22.08;99792.09;10326936;28;20085;-79
2022/08/02 17:05:55;;;;;;;4.63;1.60;;;;;;;31.30;22.89;99791.16;10329557;28;20065;-79
2022/08/02 17:10:58;;;;;;;2.40;1.40;;;;;;;31.01;23.54;99786.53;10329953;28;20053;-78
2022/08/02 17:16:04;;;;;;;8.73;2.20;;;;;;;31.00;23.31;99793.00;10328701;28;20077;-79
2022/08/02 17:21:26;;;;;;;4.05;1.40;;;;;;;30.94;23.36;99788.47;10345975;28;20058;-79
2022/08/02 17:26:28;;;;;;;7.05;1.42;;;;;;;30.89;23.16;99791.03;10328760;28;20092;-79
2022/08/02 17:31:30;;;;;;;4.95;1.30;;;;;;;30.66;23.21;99789.84;10329894;28;20418;-78
2022/08/02 17:36:47;;;;;;;5.00;1.50;;;;;;;30.55;23.82;99782.50;10332299;28;20064;-78
2022/08/02 17:41:50;;;;;;;4.03;1.50;;;;;;;30.33;23.89;99793.91;10339117;28;20058;-79
2022/08/02 17:46:52;;;;;;;3.33;1.52;;;;;;;30.32;24.71;99798.47;10331298;28;20061;-78
2022/08/02 17:51:54;;;;;;;6.30;1.40;;;;;;;30.31;24.39;99796.00;10329019;28;20089;-79
2022/08/02 17:57:18;;;;;;;3.80;1.45;;;;;;;30.19;24.56;99787.78;10333969;28;20561;-78
2022/08/02 18:02:20;;;;;;;5.63;1.55;;;;;;;30.03;24.72;99804.53;10347133;28;20157;-78
2022/08/02 18:07:22;;;;;;;3.58;1.60;;;;;;;29.75;24.65;99798.72;10354558;28;20057;-78
2022/08/02 18:12:25;;;;;;;7.25;1.50;;;;;;;29.48;25.43;99803.47;10332785;28;20050;-79
2022/08/02 18:17:28;;;;;;;4.85;1.40;;;;;;;29.30;25.96;99797.94;10333832;28;20049;-78
2022/08/02 18:22:30;;;;;;;3.15;1.50;;;;;;;29.11;25.93;99798.03;10337852;28;20058;-78
2022/08/02 18:27:33;;;;;;;6.43;1.65;;;;;;;28.94;26.36;99803.09;10335855;28;20054;-79
2022/08/02 18:32:39;;;;;;;2.88;1.70;;;;;;;28.97;26.94;99803.47;10334689;28;20078;-79
2022/08/02 18:38:02;;;;;;;3.35;1.50;;;;;;;28.81;27.31;99798.53;10348186;28;20053;-79
2022/08/02 18:43:11;;;;;;;6.53;1.70;;;;;;;28.61;27.88;99800.47;10335776;28;20133;-79
2022/08/02 18:48:14;;;;;;;5.93;1.40;;;;;;;28.13;28.49;99809.81;10333216;28;20046;-79
2022/08/02 18:53:37;;;;;;;2.00;1.40;;;;;;;27.67;29.35;99803.56;10351130;28;20091;-79
2022/08/02 18:58:42;;;;;;;6.88;1.60;;;;;;;27.54;29.99;99809.75;10334294;28;20084;-80
2022/08/02 19:03:47;;;;;;;8.02;1.70;;;;;;;27.42;30.54;99806.81;10334810;28;20061;-80
2022/08/02 19:08:50;;;;;;;5.38;1.50;;;;;;;27.19;30.75;99808.19;10337570;28;20054;-80
2022/08/02 19:14:12;;;;;;;10.05;1.92;;;;;;;26.93;31.63;99814.25;10338881;28;20091;-80
2022/08/02 19:19:20;;;;;;;4.40;1.65;;;;;;;26.84;32.09;99807.41;10334803;28;20053;-79
2022/08/02 19:24:22;;;;;;;8.45;1.65;;;;;;;26.63;32.50;99810.16;10335778;28;20083;-79
2022/08/02 19:29:26;;;;;;;3.88;1.80;;;;;;;26.40;32.74;99809.59;10334689;28;20431;-83
2022/08/02 19:34:48;;;;;;;6.65;1.63;;;;;;;26.27;32.82;99820.22;10336758;28;20484;-82
2022/08/02 19:39:50;;;;;;;2.05;1.45;;;;;;;26.06;33.13;99829.09;10333512;28;20058;-81
2022/08/02 19:44:53;;;;;;;4.85;1.77;;;;;;;25.88;33.94;99826.88;10350884;28;20112;-82
2022/08/02 19:49:56;;;;;;;5.40;1.90;;;;;;;25.69;34.11;99822.16;10335126;28;20064;-81
2022/08/02 19:54:58;;;;;;;3.15;1.70;;;;;;;25.54;34.31;99828.59;10335982;28;20042;-80
2022/08/02 20:00:20;;;;;;;4.70;1.92;;;;;;;25.29;35.14;99841.44;10335052;28;20136;-79
2022/08/02 20:06:15;;;;;;;4.72;1.70;;;;;;;25.00;35.71;99841.50;10336288;28;20085;-79
2022/08/02 20:11:18;;;;;;;6.68;1.80;;;;;;;24.88;35.78;99837.63;10348098;28;20060;-79
2022/08/02 20:16:23;;;;;;;4.75;1.70;;;;;;;24.73;36.04;99845.69;10333053;28;20109;-78
2022/08/02 20:21:29;;;;;;;4.93;1.75;;;;;;;24.00;37.16;99847.34;10330987;28;20130;-79
2022/08/02 20:26:40;;;;;;;4.53;1.70;;;;;;;23.96;37.86;99841.50;10332307;28;20078;-79
2022/08/02 20:32:03;;;;;;;8.02;1.95;;;;;;;24.09;37.44;99846.28;10335202;28;20859;-79
2022/08/02 20:37:05;;;;;;;6.97;1.90;;;;;;;24.15;37.41;99859.75;10333703;28;20058;-79
2022/08/02 20:42:27;;;;;;;3.15;1.85;;;;;;;24.16;37.50;99860.59;10346582;28;20487;-79
2022/08/02 20:47:29;;;;;;;4.25;1.92;;;;;;;24.08;37.68;99860.66;10350018;28;20045;-79
2022/08/02 20:52:39;;;;;;;4.60;1.90;;;;;;;23.98;37.77;99860.84;10334362;28;20058;-79
2022/08/02 20:57:41;;;;;;;5.47;1.85;;;;;;;23.80;38.73;99860.31;10331839;28;20145;-79
2022/08/02 21:03:02;;;;;;;4.07;1.92;;;;;;;23.53;39.21;99876.88;10332049;28;20058;-79
2022/08/02 21:08:05;;;;;;;3.97;1.95;;;;;;;23.07;39.65;99875.03;10328674;28;20463;-79
2022/08/02 21:13:14;;;;;;;;;;;;;;;22.68;40.32;99885.63;10328278;28;20061;-78
2022/08/02 21:18:23;;;;;;;4.38;2.10;;;;;;;23.02;40.02;99877.41;10330267;28;19925;-79
2022/08/02 21:23:36;;;;;;;4.10;1.80;;;;;;;23.07;40.23;99880.38;10343905;28;20054;-79
2022/08/02 21:28:38;;;;;;;3.92;1.95;;;;;;;22.89;40.49;99883.28;10327863;28;20430;-78
2022/08/02 21:33:46;;;;;;;3.75;1.88;;;;;;;22.79;40.82;99879.97;10332529;28;20058;-78
2022/08/02 21:39:00;;;;;;;3.42;1.80;;;;;;;22.68;41.16;99881.13;10332630;28;20144;-78
2022/08/02 21:44:07;;;;;;;3.03;1.85;;;;;;;22.52;41.55;99885.66;10345390;28;20149;-78
2022/08/02 21:49:10;;;;;;;4.80;1.90;;;;;;;22.34;41.85;99877.88;10330260;28;20045;-79
2022/08/02 21:54:13;;;;;;;4.75;1.98;;;;;;;22.39;41.60;99880.84;10328234;28;20633;-78
2022/08/02 21:59:22;;;;;;;3.38;1.80;;;;;;;22.29;41.61;99888.19;10347700;28;20046;-78
2022/08/02 22:04:27;;;;;;;4.85;2.00;;;;;;;22.16;42.00;99887.88;10330259;28;20054;-78
2022/08/02 22:09:30;;;;;;;6.30;2.10;;;;;;;22.13;42.24;99898.03;10333082;28;20062;-78
2022/08/02 22:14:49;;;;;;;5.78;2.10;;;;;;;22.09;42.40;99899.38;10334664;28;20050;-78
2022/08/02 22:19:55;;;;;;;6.47;1.95;;;;;;;21.84;42.61;99901.13;10331312;28;20049;-78
2022/08/02 22:24:57;;;;;;;7.38;2.10;;;;;;;21.75;42.78;99908.25;10330464;28;20425;-78
2022/08/02 22:30:19;;;;;;;4.35;2.00;;;;;;;21.48;43.47;99911.19;10331943;28;20143;-78
2022/08/02 22:35:21;;;;;;;3.58;1.90;;;;;;;21.58;43.33;99911.03;10332364;28;20044;-78
2022/08/02 22:40:22;;;;;;;3.50;2.00;;;;;;;21.61;43.02;99916.03;10336159;28;20163;-78
2022/08/02 22:45:24;;;;;;;4.47;2.38;;;;;;;21.31;43.77;99920.09;10335937;28;20108;-78
2022/08/02 22:50:26;;;;;;;4.80;2.03;;;;;;;20.80;44.94;99922.81;10339262;28;20144;-78
2022/08/02 22:55:59;;;;;;;4.30;1.98;;;;;;;20.69;45.38;99923.91;10338100;28;20107;-78
2022/08/02 23:01:02;;;;;;;3.00;1.80;;;;;;;20.90;44.74;99924.38;10337369;28;20137;-78
2022/08/02 23:06:05;;;;;;;2.83;1.83;;;;;;;20.98;44.83;99923.56;10337994;28;20081;-78
2022/08/02 23:11:07;;;;;;;4.15;1.98;;;;;;;20.91;44.79;99919.84;10336541;28;20050;-78
2022/08/02 23:21:31;;;;;;;4.22;2.10;;;;;;;21.00;44.63;99927.75;10338219;28;20057;-78
2022/08/02 23:26:53;;;;;;;3.63;2.10;;;;;;;20.91;45.04;99931.34;10336679;28;20053;-78
2022/08/02 23:31:55;;;;;;;4.53;2.10;;;;;;;20.85;45.15;99920.50;10334556;28;20140;-78
2022/08/02 23:36:56;;;;;;;3.58;2.00;;;;;;;20.74;45.18;99924.25;10334761;28;20053;-78
2022/08/02 23:41:58;;;;;;;12.95;2.45;;;;;;;20.73;45.25;99924.41;10334000;28;20049;-78
2022/08/02 23:47:01;;;;;;;3.65;2.03;;;;;;;20.57;45.91;99935.75;10337874;28;20097;-77
2022/08/02 23:52:03;;;;;;;4.18;2.00;;;;;;;20.57;45.99;99926.91;10335968;28;20112;-78